Osgood, IN

01:50 PM EDT dna 23 Október, 2014 (GMT -0400)
KINBATES2 | Change Station
CLOSE
Current Station
Personal Weather Stations
Location: Batesville, IN
Nad. výška:: 974 ft
Najbližšie meteo stanice

Elev 974 ft 39.29 °N, 85.23 °W | Updated 13 minutes ago

Jasno
Jasno
55.7 °F
Feels Like 55.7 °F
N
0.0
Vietor meniaci sa Vietor from JZ
Gusts 2.0 mph

Dnes
High -- | Low -- °F
--% Chance of Precip.
Yesterday
High -- | Low -- °F
Precip. -- in
7:59 AM 6:51 PM
Ubúdajúci mesiac, 4. fáza, 0% visible
Tlak 30.25 in
Viditeľnosť 10.0 mile
Oblačnost Jasno
Rosný bod 44 °F
Vlhkosť 65%
Rainfall 0.00 in
Výška snehu Not available.
UV 5 out of 12
Pollen .80 out of 12
Air Quality Not available.
Flu Activity Sporadic
METAR KBAK 231645Z 18006KT 10SM SKC 12/06 A3025

More Conditions Fewer Conditions

Tlak 30.25 in
Viditeľnosť 10.0 mile
Oblačnost Jasno
Rosný bod 44 °F
Vlhkosť 65%
Rainfall 0.00 in
Výška snehu Not available.
UV 5 out of 12
Pollen .80 out of 12
Air Quality Not available.
Flu Activity Sporadic
METAR KBAK 231645Z 18006KT 10SM SKC 12/06 A3025

More Conditions Fewer Conditions

10-Day Weather Forecast

Almanac

Astronómia

Oct. 23, 2014 Východ Západ
Aktuálny čas 7:59 AM EDT 6:51 PM EDT
Civil Twilight 7:31 AM EDT 7:18 PM EDT
Nautical Twilight 7:00 AM EDT 7:49 PM EDT
Astronomical Twilight 6:29 AM EDT 8:20 PM EDT
Mesiac 7:38 AM EDT 6:52 PM EDT
Length Of Visible Light 11h 46m
Dĺžka dňa
10h 52m
Tomorrow will be 2m 23s shorter.
Ubúdajúci mesiac, 4. fáza, 0% of the Moon is Illuminated
Dnes
Ubúdajúci mesiac, 4. fáza
Oct 23
New
Oct 30
Prvá štvrtina
Nov 6
Spln
Nov 14
Posledná štvrť

Today's Extremes

State Highs State Lows

Community

WunderPhotos

Upload Photos

1,764,322 photos uploaded!

WunderBlogs® & News

By Dr. Jeff Masters
Director of Meteorology, Weather Underground
By Kari Strenfel
Meteorologist, Weather Underground
By Christopher C. Burt
Weather Historian, Weather Underground
October 23, 2014
October 23, 2014
October 23, 2014

Nearby

Výska snehu

Station Depth Nad. výška:
No new snow has been reported.

Aktivita zemetrasenia

Mesto Distance Mag. Time & Date
No recent earthquake activity has been reported nearby.
Minimum magnitude displayed is 2.5.

Coastal Water Temperatures

Miesto Teplota
No Stations Reporting

Najbližšie meteo stanice